Time;durP1;ratioP1;P1;durP2;ratioP2;P2;SDS_P1;SDS_P2;PMS_P1;PMS_P2;Temp;Humidity;BMP_temperature;BMP_pressure;BME280_temperature;BME280_humidity;BME280_pressure;Samples;Min_cycle;Max_cycle;Signal;HPM_P1;HPM_P2
2022/12/20 00:00:22;;;;;;;13.00;12.17;;;12.60;99.90;;;;;;5085280;28;20465;-70
2022/12/20 00:02:49;;;;;;;12.40;11.80;;;12.60;99.90;;;;;;5076740;28;20477;-74
2022/12/20 00:05:16;;;;;;;13.00;12.00;;;12.60;99.90;;;;;;5080404;28;21154;-70
2022/12/20 00:07:43;;;;;;;12.27;11.67;;;12.60;99.90;;;;;;5079686;28;20961;-70
2022/12/20 00:10:13;;;;;;;12.23;11.63;;;12.60;99.90;;;;;;5077253;28;20459;-71
2022/12/20 00:12:39;;;;;;;12.57;11.87;;;12.70;99.90;;;;;;5083270;28;20803;-68
2022/12/20 00:15:07;;;;;;;12.53;11.63;;;12.70;99.90;;;;;;5087200;28;20523;-71
2022/12/20 00:17:34;;;;;;;12.50;11.90;;;12.70;99.90;;;;;;5077746;28;20457;-70
2022/12/20 00:20:00;;;;;;;12.13;11.40;;;12.70;99.90;;;;;;5077051;28;20478;-70
2022/12/20 00:22:27;;;;;;;12.43;11.83;;;12.60;99.90;;;;;;5080482;28;20458;-72
2022/12/20 00:24:54;;;;;;;12.70;11.83;;;12.60;99.90;;;;;;5069815;28;20988;-73
2022/12/20 00:27:23;;;;;;;12.77;12.07;;;12.60;99.90;;;;;;5079074;28;20923;-70
2022/12/20 00:29:50;;;;;;;11.87;11.33;;;12.70;99.90;;;;;;5090837;28;20507;-70
2022/12/20 00:32:16;;;;;;;12.63;11.93;;;12.70;99.90;;;;;;5082753;28;20515;-72
2022/12/20 00:34:43;;;;;;;12.43;11.90;;;;;;;;;;5084263;28;20482;-75
2022/12/20 00:37:10;;;;;;;12.87;12.03;;;12.80;99.90;;;;;;5081260;28;21137;-73
2022/12/20 00:39:37;;;;;;;13.17;12.47;;;;;;;;;;5072434;28;20454;-70
2022/12/20 00:42:04;;;;;;;12.63;11.80;;;12.80;99.90;;;;;;5078086;28;20843;-69
2022/12/20 00:44:33;;;;;;;12.93;12.17;;;;;;;;;;5079843;28;20996;-70
2022/12/20 00:47:00;;;;;;;13.53;12.70;;;;;;;;;;5075997;28;20882;-70
2022/12/20 00:49:26;;;;;;;12.83;12.23;;;12.90;99.90;;;;;;5083206;28;20492;-70
2022/12/20 00:51:54;;;;;;;12.30;11.50;;;;;;;;;;5083463;28;20973;-71
2022/12/20 00:54:20;;;;;;;12.33;11.63;;;12.90;99.90;;;;;;5081298;28;20481;-70
2022/12/20 00:56:47;;;;;;;13.03;12.17;;;12.90;99.90;;;;;;5074465;28;20955;-71
2022/12/20 00:59:14;;;;;;;13.00;12.33;;;12.90;99.90;;;;;;5073126;28;20482;-71
2022/12/20 01:01:42;;;;;;;13.47;12.40;;;12.90;99.90;;;;;;5070831;28;20471;-73
2022/12/20 01:04:09;;;;;;;12.13;11.57;;;12.90;99.90;;;;;;5079089;28;20838;-70
2022/12/20 01:06:36;;;;;;;12.70;11.97;;;12.90;99.90;;;;;;5079362;28;20462;-69
2022/12/20 01:09:04;;;;;;;12.40;11.70;;;12.90;99.90;;;;;;5082043;28;20549;-72
2022/12/20 01:11:32;;;;;;;12.80;12.10;;;12.90;99.90;;;;;;5085313;28;20550;-74
2022/12/20 01:14:02;;;;;;;12.73;12.00;;;12.90;99.90;;;;;;5078960;28;20667;-73
2022/12/20 01:16:30;;;;;;;12.90;12.10;;;12.90;99.90;;;;;;5077956;28;20463;-69
2022/12/20 01:18:58;;;;;;;13.37;12.57;;;12.90;99.90;;;;;;5078794;28;20473;-71
2022/12/20 01:21:27;;;;;;;13.00;12.10;;;12.90;99.90;;;;;;5077861;28;20466;-70
2022/12/20 01:23:55;;;;;;;12.87;11.90;;;12.90;99.90;;;;;;5086251;28;20953;-69
2022/12/20 01:26:25;;;;;;;12.83;12.13;;;12.90;99.90;;;;;;5085459;28;20469;-72
2022/12/20 01:28:55;;;;;;;12.77;12.10;;;12.90;99.90;;;;;;5078100;28;20450;-69
2022/12/20 01:31:22;;;;;;;12.50;11.73;;;12.90;99.90;;;;;;5081817;28;20458;-70
2022/12/20 01:33:50;;;;;;;12.97;12.27;;;12.90;99.90;;;;;;5082503;28;20964;-70
2022/12/20 01:36:20;;;;;;;11.83;11.23;;;12.70;99.90;;;;;;5086927;28;21030;-72
2022/12/20 01:38:47;;;;;;;12.83;12.07;;;12.60;99.90;;;;;;5086447;28;20464;-73
2022/12/20 01:41:16;;;;;;;12.27;11.57;;;12.40;99.90;;;;;;5074690;28;20459;-73
2022/12/20 01:43:52;;;;;;;12.50;11.50;;;12.30;99.90;;;;;;5078739;28;21028;-69
2022/12/20 01:46:21;;;;;;;12.33;11.53;;;12.20;99.90;;;;;;5082342;28;20461;-72
2022/12/20 01:48:52;;;;;;;12.60;11.80;;;12.10;99.90;;;;;;5083458;28;21308;-73
2022/12/20 01:51:22;;;;;;;11.97;11.37;;;12.10;99.90;;;;;;5081634;28;20454;-69
2022/12/20 01:53:54;;;;;;;11.90;11.30;;;12.00;99.90;;;;;;5079734;28;21157;-69
2022/12/20 01:56:22;;;;;;;11.80;11.10;;;12.00;99.90;;;;;;5083029;28;20494;-70
2022/12/20 01:58:51;;;;;;;12.43;11.83;;;12.00;99.90;;;;;;5084749;28;20992;-74
2022/12/20 02:01:18;;;;;;;12.10;11.50;;;12.00;99.90;;;;;;5073950;28;20549;-72
2022/12/20 02:03:45;;;;;;;12.30;11.70;;;12.00;99.90;;;;;;5080820;28;20520;-70
2022/12/20 02:06:18;;;;;;;12.13;11.53;;;12.00;99.90;;;;;;5085130;28;20461;-70
2022/12/20 02:08:50;;;;;;;12.37;11.70;;;12.00;99.90;;;;;;5083839;28;20601;-70
2022/12/20 02:11:28;;;;;;;11.80;11.20;;;12.00;99.90;;;;;;5083501;28;20569;-70
2022/12/20 02:14:09;;;;;;;13.20;12.40;;;12.00;99.90;;;;;;5079789;28;20555;-70
2022/12/20 02:16:43;;;;;;;12.17;11.47;;;12.00;99.90;;;;;;5069996;28;20600;-69
2022/12/20 02:19:25;;;;;;;11.90;11.30;;;12.00;99.90;;;;;;5082544;28;20964;-72
2022/12/20 02:21:57;;;;;;;13.50;12.70;;;12.00;99.90;;;;;;5077018;28;20545;-69
2022/12/20 02:24:44;;;;;;;12.87;12.07;;;12.00;99.90;;;;;;5084993;28;20469;-70
2022/12/20 02:27:31;;;;;;;12.43;11.83;;;12.00;99.90;;;;;;5083263;28;20465;-69
2022/12/20 02:30:13;;;;;;;12.50;11.70;;;12.00;99.90;;;;;;5075589;28;20485;-73
2022/12/20 02:32:46;;;;;;;12.23;11.60;;;11.90;99.90;;;;;;5080148;28;21155;-70
2022/12/20 02:35:17;;;;;;;12.30;11.70;;;11.90;99.90;;;;;;5076109;28;20484;-69
2022/12/20 02:37:52;;;;;;;12.57;11.97;;;11.90;99.90;;;;;;5080538;28;20836;-71
2022/12/20 02:40:23;;;;;;;18.57;17.67;;;12.00;99.90;;;;;;5084749;28;20470;-68
2022/12/20 02:42:53;;;;;;;22.60;21.20;;;11.90;99.90;;;;;;5077801;28;20454;-68
2022/12/20 02:45:24;;;;;;;24.47;22.90;;;11.70;99.90;;;;;;5076026;28;21091;-72
2022/12/20 02:47:55;;;;;;;23.33;21.93;;;11.50;99.90;;;;;;5078107;28;20508;-69
2022/12/20 02:50:27;;;;;;;25.50;23.60;;;11.40;99.90;;;;;;5081145;28;20458;-69
2022/12/20 02:52:56;;;;;;;26.33;24.50;;;11.30;99.90;;;;;;5076968;28;20463;-69
2022/12/20 02:55:31;;;;;;;26.10;24.13;;;11.10;99.90;;;;;;5077019;28;20575;-69
2022/12/20 02:58:02;;;;;;;25.13;23.43;;;10.90;99.90;;;;;;5078931;28;20528;-70
2022/12/20 03:00:34;;;;;;;24.90;23.20;;;10.80;99.90;;;;;;5075240;28;20639;-69
2022/12/20 03:05:48;;;;;;;24.80;23.10;;;10.60;99.90;;;;;;5084087;28;20449;-69
2022/12/20 03:08:16;;;;;;;26.13;23.97;;;10.50;99.90;;;;;;5079709;28;20473;-71
2022/12/20 03:10:43;;;;;;;24.43;22.63;;;10.50;99.90;;;;;;5075039;28;20458;-69
2022/12/20 03:13:10;;;;;;;24.83;23.03;;;10.40;99.90;;;;;;5077035;28;20459;-69
2022/12/20 03:15:39;;;;;;;24.23;22.53;;;10.40;99.90;;;;;;5081017;28;20888;-71
2022/12/20 03:18:06;;;;;;;24.63;22.93;;;10.40;99.90;;;;;;5071917;28;20474;-70
2022/12/20 03:20:33;;;;;;;25.17;23.37;;;10.30;99.90;;;;;;5081462;28;20459;-72
2022/12/20 03:23:00;;;;;;;24.33;22.63;;;10.30;99.90;;;;;;5080901;28;20478;-71
2022/12/20 03:25:27;;;;;;;23.97;22.37;;;10.20;99.90;;;;;;5078817;28;20473;-69
2022/12/20 03:27:54;;;;;;;24.20;22.40;;;10.20;99.90;;;;;;5082084;28;20465;-69
2022/12/20 03:30:21;;;;;;;24.63;22.93;;;10.20;99.90;;;;;;5086085;28;21129;-69
2022/12/20 03:32:49;;;;;;;25.70;23.80;;;10.20;99.90;;;;;;5072657;28;20454;-70
2022/12/20 03:35:17;;;;;;;25.07;23.20;;;10.10;99.90;;;;;;5078351;28;20486;-70
2022/12/20 03:37:44;;;;;;;24.80;23.00;;;10.10;99.90;;;;;;5079440;28;20465;-69
2022/12/20 03:40:11;;;;;;;24.60;23.00;;;10.10;99.90;;;;;;5082074;28;20468;-69
2022/12/20 03:42:38;;;;;;;23.80;22.00;;;10.10;99.90;;;;;;5077112;28;20827;-69
2022/12/20 03:45:06;;;;;;;22.33;20.87;;;10.10;99.90;;;;;;5079719;28;20875;-70
2022/12/20 03:47:33;;;;;;;23.10;21.60;;;10.00;99.90;;;;;;5081197;28;20462;-71
2022/12/20 03:50:02;;;;;;;22.60;21.00;;;10.00;99.90;;;;;;5079764;28;20483;-71
2022/12/20 03:52:29;;;;;;;22.07;20.67;;;9.90;99.90;;;;;;5075851;28;20473;-70
2022/12/20 03:54:55;;;;;;;22.63;21.07;;;9.90;99.90;;;;;;5077573;28;20820;-71
2022/12/20 03:57:22;;;;;;;22.00;20.60;;;9.90;99.90;;;;;;5076326;28;20466;-70
2022/12/20 03:59:49;;;;;;;22.63;20.83;;;9.90;99.90;;;;;;5082546;28;20467;-71
2022/12/20 04:02:16;;;;;;;21.77;20.47;;;9.90;99.90;;;;;;5087134;28;20462;-71
2022/12/20 04:04:43;;;;;;;22.03;20.53;;;9.80;99.90;;;;;;5088607;28;20576;-71
2022/12/20 04:07:11;;;;;;;21.60;20.30;;;9.90;99.90;;;;;;5083418;28;20527;-70
2022/12/20 04:09:37;;;;;;;21.80;20.30;;;9.90;99.90;;;;;;5084475;28;20532;-69
2022/12/20 04:12:04;;;;;;;22.33;20.40;;;9.80;99.90;;;;;;5085024;28;20512;-69
2022/12/20 04:14:31;;;;;;;21.33;19.83;;;9.90;99.90;;;;;;5081398;28;20454;-71
2022/12/20 04:16:58;;;;;;;22.00;20.30;;;9.90;99.90;;;;;;5082802;28;20571;-70
2022/12/20 04:19:25;;;;;;;20.50;19.10;;;9.80;99.90;;;;;;5081620;28;20457;-71
2022/12/20 04:21:54;;;;;;;21.40;19.53;;;9.90;99.90;;;;;;5076997;28;20814;-70
2022/12/20 04:24:23;;;;;;;19.83;18.43;;;9.90;99.90;;;;;;5079779;28;20458;-69
2022/12/20 04:26:50;;;;;;;19.20;18.10;;;10.00;99.90;;;;;;5079352;28;20487;-71
2022/12/20 04:29:17;;;;;;;19.77;18.67;;;10.00;99.90;;;;;;5084755;28;20466;-72
2022/12/20 04:31:44;;;;;;;20.10;18.50;;;10.00;99.90;;;;;;5071195;28;20477;-71
2022/12/20 04:34:11;;;;;;;19.30;18.10;;;10.10;99.90;;;;;;5074313;28;20472;-70
2022/12/20 04:36:38;;;;;;;18.80;17.70;;;10.10;99.90;;;;;;5075469;28;20477;-71
2022/12/20 04:39:05;;;;;;;19.10;18.00;;;10.10;99.90;;;;;;5078272;28;20903;-70
2022/12/20 04:41:33;;;;;;;18.87;17.57;;;10.10;99.90;;;;;;5075566;28;20464;-72
2022/12/20 04:44:00;;;;;;;19.80;18.40;;;10.10;99.90;;;;;;5077800;28;20511;-69
2022/12/20 04:46:27;;;;;;;20.00;18.40;;;10.00;99.90;;;;;;5076379;28;20469;-70
2022/12/20 04:48:54;;;;;;;20.70;19.00;;;10.00;99.90;;;;;;5073028;28;20466;-70
2022/12/20 04:51:21;;;;;;;20.63;19.17;;;10.00;99.90;;;;;;5077965;28;20473;-70
2022/12/20 04:53:47;;;;;;;22.47;20.47;;;9.90;99.90;;;;;;5077970;28;20664;-70
2022/12/20 04:56:16;;;;;;;21.50;20.00;;;9.90;99.90;;;;;;5075290;28;20498;-71
2022/12/20 04:58:44;;;;;;;22.00;20.30;;;9.90;99.90;;;;;;5082806;28;20318;-71
2022/12/20 05:01:12;;;;;;;22.07;20.30;;;9.90;99.90;;;;;;5083751;28;20471;-72
2022/12/20 05:03:39;;;;;;;22.53;20.63;;;9.90;99.90;;;;;;5081547;28;20476;-71
2022/12/20 05:06:07;;;;;;;21.50;19.90;;;9.90;99.90;;;;;;5079577;28;20454;-71
2022/12/20 05:08:34;;;;;;;22.23;20.53;;;9.90;99.90;;;;;;5083169;28;20450;-72
2022/12/20 05:11:02;;;;;;;22.37;20.43;;;9.70;99.90;;;;;;5086136;28;20725;-72
2022/12/20 05:13:29;;;;;;;22.00;20.40;;;9.70;99.90;;;;;;5086130;28;20465;-71
2022/12/20 05:15:58;;;;;;;21.13;19.37;;;9.70;99.90;;;;;;5083748;28;20953;-71
2022/12/20 05:18:26;;;;;;;22.13;20.10;;;9.70;99.90;;;;;;5078252;28;21170;-71
2022/12/20 05:26:22;;;;;;;20.90;19.20;;;9.50;99.90;;;;;;5083234;28;20817;-70
2022/12/20 05:28:49;;;;;;;21.07;19.30;;;9.50;99.90;;;;;;5074268;28;20905;-72
2022/12/20 05:31:17;;;;;;;21.00;19.50;;;9.60;99.90;;;;;;5079152;28;20496;-71
2022/12/20 05:33:45;;;;;;;20.17;18.40;;;9.50;99.90;;;;;;5083030;28;20567;-70
2022/12/20 05:36:13;;;;;;;21.07;19.37;;;9.50;99.90;;;;;;5084297;28;21275;-70
2022/12/20 05:38:40;;;;;;;20.23;18.20;;;;;;;;;;5091725;28;20518;-73
2022/12/20 05:41:07;;;;;;;20.90;18.90;;;9.60;99.90;;;;;;5078623;28;20469;-72
2022/12/20 05:43:34;;;;;;;21.90;20.13;;;9.50;99.90;;;;;;5082130;28;20473;-73
2022/12/20 05:46:01;;;;;;;21.00;19.50;;;9.50;99.90;;;;;;5075273;28;20978;-72
2022/12/20 05:48:29;;;;;;;24.50;19.60;;;9.50;99.90;;;;;;5077285;28;20455;-70
2022/12/20 05:50:57;;;;;;;21.27;19.30;;;9.50;99.90;;;;;;5083572;28;20458;-70
2022/12/20 05:53:25;;;;;;;21.40;19.60;;;;;;;;;;5080522;28;20468;-70
2022/12/20 05:55:53;;;;;;;21.10;19.50;;;9.50;99.90;;;;;;5078248;28;20521;-70
2022/12/20 05:58:20;;;;;;;20.70;18.97;;;9.50;99.90;;;;;;5085568;28;20485;-70
2022/12/20 06:00:48;;;;;;;20.70;19.00;;;9.60;99.90;;;;;;5082783;28;20808;-70
2022/12/20 06:03:15;;;;;;;25.93;19.57;;;;;;;;;;5079645;28;20554;-70
2022/12/20 06:05:45;;;;;;;20.47;18.57;;;9.60;99.90;;;;;;5086206;28;20564;-71
2022/12/20 06:08:13;;;;;;;19.30;17.53;;;9.60;99.90;;;;;;5081527;28;20470;-70
2022/12/20 06:10:41;;;;;;;18.83;17.30;;;9.70;99.90;;;;;;5080423;28;20473;-70
2022/12/20 06:13:10;;;;;;;23.13;17.87;;;9.70;99.90;;;;;;5079291;28;20459;-72
2022/12/20 06:15:37;;;;;;;19.10;17.70;;;9.70;99.90;;;;;;5082371;28;20470;-70
2022/12/20 06:18:04;;;;;;;18.87;17.40;;;;;;;;;;5078955;28;20820;-70
2022/12/20 06:20:32;;;;;;;24.63;18.30;;;9.70;99.90;;;;;;5078279;28;21044;-71
2022/12/20 06:23:00;;;;;;;18.73;17.50;;;9.70;99.90;;;;;;5083009;28;20462;-72
2022/12/20 06:25:27;;;;;;;18.57;17.37;;;9.70;99.90;;;;;;5080909;28;20462;-70
2022/12/20 06:27:54;;;;;;;19.67;17.67;;;9.70;99.90;;;;;;5074443;28;20494;-69
2022/12/20 06:30:21;;;;;;;19.13;17.40;;;9.70;99.90;;;;;;5069794;28;20463;-71
2022/12/20 06:32:48;;;;;;;23.33;17.10;;;9.80;99.90;;;;;;5083191;28;20457;-70
2022/12/20 06:35:15;;;;;;;18.87;16.97;;;9.80;99.90;;;;;;5081145;28;20991;-69
2022/12/20 06:37:42;;;;;;;18.90;17.50;;;9.70;99.90;;;;;;5080574;28;20501;-70
2022/12/20 06:40:13;;;;;;;17.80;16.47;;;9.70;99.90;;;;;;5082144;28;20479;-71
2022/12/20 06:42:40;;;;;;;18.40;17.00;;;9.70;99.90;;;;;;5077805;28;20459;-70
2022/12/20 06:45:08;;;;;;;18.70;17.10;;;9.70;99.90;;;;;;5081476;28;20458;-73
2022/12/20 06:47:35;;;;;;;19.10;17.70;;;9.60;99.90;;;;;;5080826;28;20455;-72
2022/12/20 06:50:02;;;;;;;19.67;18.00;;;9.60;99.90;;;;;;5081672;28;20972;-72
2022/12/20 06:52:29;;;;;;;18.77;17.57;;;;;;;;;;5081865;28;20875;-70
2022/12/20 06:54:56;;;;;;;18.90;17.80;;;9.50;99.90;;;;;;5082265;28;20469;-72
2022/12/20 06:57:25;;;;;;;17.93;16.73;;;9.50;99.90;;;;;;5083275;28;21030;-71
2022/12/20 06:59:52;;;;;;;18.53;17.13;;;9.50;99.90;;;;;;5080860;28;20461;-71
2022/12/20 07:02:19;;;;;;;18.30;17.00;;;;;;;;;;5079997;28;20991;-70
2022/12/20 07:04:46;;;;;;;17.70;16.50;;;9.50;99.90;;;;;;5087791;28;20486;-70
2022/12/20 07:07:13;;;;;;;19.20;17.00;;;9.50;99.90;;;;;;5081785;28;20907;-69
2022/12/20 07:09:41;;;;;;;19.17;17.20;;;9.50;99.90;;;;;;5081948;28;20478;-71
2022/12/20 07:12:09;;;;;;;19.77;18.13;;;9.50;99.90;;;;;;5091168;28;20543;-72
2022/12/20 07:14:38;;;;;;;18.77;17.07;;;;;;;;;;5075844;28;20474;-73
2022/12/20 07:17:06;;;;;;;17.60;16.30;;;9.50;99.90;;;;;;5075925;28;20483;-74
2022/12/20 07:19:33;;;;;;;16.70;15.50;;;9.50;99.90;;;;;;5083204;28;20553;-69
2022/12/20 07:22:00;;;;;;;18.77;16.97;;;;;;;;;;5076023;28;20465;-71
2022/12/20 07:24:26;;;;;;;19.67;16.87;;;9.50;99.90;;;;;;5089264;28;20508;-69
2022/12/20 07:26:54;;;;;;;19.17;17.40;;;9.50;99.90;;;;;;5078054;28;20522;-70
2022/12/20 07:29:21;;;;;;;18.67;17.03;;;9.50;99.90;;;;;;5080707;28;20469;-70
2022/12/20 07:31:49;;;;;;;20.07;18.57;;;;;;;;;;5073548;28;20458;-69
2022/12/20 07:34:16;;;;;;;18.03;16.73;;;9.50;99.90;;;;;;5082291;28;20467;-70
2022/12/20 07:36:42;;;;;;;19.47;17.90;;;9.60;99.90;;;;;;5081908;28;20489;-72
2022/12/20 07:39:10;;;;;;;24.13;18.00;;;9.60;99.90;;;;;;5080246;28;20474;-72
2022/12/20 07:41:37;;;;;;;18.00;16.60;;;;;;;;;;5076058;28;20489;-71
2022/12/20 07:44:04;;;;;;;17.77;16.53;;;9.60;99.90;;;;;;5074705;28;20472;-71
2022/12/20 07:46:31;;;;;;;19.27;17.33;;;;;;;;;;5082092;28;20460;-72
2022/12/20 07:49:00;;;;;;;17.50;16.20;;;;;;;;;;5085996;28;20473;-70
2022/12/20 07:51:30;;;;;;;18.70;15.73;;;9.80;99.90;;;;;;5092359;28;20832;-70
2022/12/20 07:53:59;;;;;;;16.53;15.53;;;;;;;;;;5087292;28;20608;-73
2022/12/20 07:56:27;;;;;;;16.37;15.20;;;9.90;99.90;;;;;;5086198;28;20479;-71
2022/12/20 07:58:57;;;;;;;16.73;15.63;;;;;;;;;;5081612;28;20473;-70
2022/12/20 08:01:25;;;;;;;17.70;16.50;;;9.90;99.90;;;;;;5093557;28;20552;-71
2022/12/20 08:03:57;;;;;;;19.53;15.90;;;9.90;99.90;;;;;;5086989;28;20830;-73
2022/12/20 08:06:26;;;;;;;17.63;15.80;;;9.90;99.90;;;;;;5085779;28;20581;-69
2022/12/20 08:08:57;;;;;;;19.47;16.80;;;9.90;99.90;;;;;;5088021;28;20906;-73
2022/12/20 08:11:26;;;;;;;25.73;17.63;;;10.00;99.90;;;;;;5079942;28;20537;-72
2022/12/20 08:13:53;;;;;;;19.47;17.73;;;10.10;99.90;;;;;;5088566;28;20632;-70
2022/12/20 08:16:19;;;;;;;72.63;21.53;;;10.10;99.90;;;;;;5081801;28;20955;-72
2022/12/20 08:18:46;;;;;;;43.93;19.07;;;10.00;99.90;;;;;;5072840;28;20886;-70
2022/12/20 08:21:13;;;;;;;76.27;23.13;;;10.00;99.90;;;;;;5082204;28;20993;-69
2022/12/20 08:23:41;;;;;;;20.30;17.57;;;10.00;99.90;;;;;;5084584;28;21090;-69
2022/12/20 08:26:08;;;;;;;17.43;15.93;;;10.00;99.90;;;;;;5073946;28;20851;-70
2022/12/20 08:28:36;;;;;;;16.73;15.13;;;10.10;99.90;;;;;;5078655;28;20468;-73
2022/12/20 08:31:04;;;;;;;15.83;14.60;;;10.10;99.90;;;;;;5080103;28;20470;-73
2022/12/20 08:33:33;;;;;;;17.07;15.77;;;10.20;99.90;;;;;;5081091;28;20523;-70
2022/12/20 08:36:02;;;;;;;15.60;14.60;;;10.20;99.90;;;;;;5083070;28;20489;-69
2022/12/20 08:38:30;;;;;;;16.00;15.00;;;10.20;99.90;;;;;;5089208;28;20581;-69
2022/12/20 08:41:02;;;;;;;16.57;15.13;;;10.20;99.90;;;;;;5079305;28;20884;-71
2022/12/20 08:43:29;;;;;;;15.67;14.87;;;10.30;99.90;;;;;;5079786;28;20461;-69
2022/12/20 08:45:56;;;;;;;15.60;14.70;;;10.30;99.90;;;;;;5078274;28;20462;-70
2022/12/20 08:48:23;;;;;;;17.30;15.87;;;10.30;99.90;;;;;;5082751;28;20949;-73
2022/12/20 08:50:54;;;;;;;15.57;14.60;;;10.30;99.90;;;;;;5072499;28;20461;-72
2022/12/20 08:53:21;;;;;;;16.70;15.20;;;10.40;99.90;;;;;;5079898;28;21628;-73
2022/12/20 08:55:49;;;;;;;15.67;14.47;;;10.50;99.90;;;;;;5081868;28;20466;-72
2022/12/20 08:58:17;;;;;;;16.33;14.73;;;10.60;99.90;;;;;;5077684;28;20502;-69
2022/12/20 09:00:44;;;;;;;16.77;15.40;;;10.60;99.90;;;;;;5081201;28;20499;-71
2022/12/20 09:03:12;;;;;;;17.87;16.77;;;10.70;99.90;;;;;;5072788;28;20461;-69
2022/12/20 09:05:44;;;;;;;18.40;17.30;;;10.70;99.90;;;;;;5082224;28;20478;-69
2022/12/20 09:08:11;;;;;;;20.17;18.23;;;10.70;99.90;;;;;;5075743;28;20554;-69
2022/12/20 09:10:38;;;;;;;19.23;17.60;;;10.60;99.90;;;;;;5083352;28;20561;-69
2022/12/20 09:13:06;;;;;;;23.37;21.33;;;10.60;99.90;;;;;;5080106;28;20450;-69
2022/12/20 09:15:35;;;;;;;20.93;19.50;;;10.60;99.90;;;;;;5075913;28;20987;-69
2022/12/20 09:18:04;;;;;;;20.57;18.97;;;10.60;99.90;;;;;;5083243;28;20500;-72
2022/12/20 09:20:31;;;;;;;21.90;19.60;;;10.60;99.90;;;;;;5084869;28;20635;-69
2022/12/20 09:22:59;;;;;;;21.97;20.57;;;10.70;99.90;;;;;;5080489;28;20460;-69
2022/12/20 09:25:26;;;;;;;22.50;21.10;;;10.70;99.90;;;;;;5084524;28;20555;-69
2022/12/20 09:27:55;;;;;;;21.73;20.33;;;10.80;99.90;;;;;;5085478;28;20807;-70
2022/12/20 09:30:22;;;;;;;24.27;22.07;;;10.80;99.90;;;;;;5074322;28;20446;-68
2022/12/20 09:32:50;;;;;;;22.70;20.83;;;10.80;99.90;;;;;;5076455;28;20853;-69
2022/12/20 09:35:17;;;;;;;22.63;20.93;;;10.90;99.90;;;;;;5086847;28;21036;-69
2022/12/20 09:37:46;;;;;;;21.07;19.60;;;10.90;99.90;;;;;;5085076;28;20496;-68
2022/12/20 09:40:18;;;;;;;21.07;19.77;;;10.90;99.90;;;;;;5081788;28;20461;-70
2022/12/20 09:42:46;;;;;;;20.50;19.17;;;11.00;99.90;;;;;;5077040;28;20852;-69
2022/12/20 09:45:20;;;;;;;20.07;18.97;;;11.00;99.90;;;;;;5079862;28;20558;-71
2022/12/20 09:47:48;;;;;;;18.03;17.00;;;11.00;99.90;;;;;;5081418;28;20457;-69
2022/12/20 09:50:19;;;;;;;19.10;17.90;;;11.10;99.90;;;;;;5090221;28;20466;-72
2022/12/20 09:53:04;;;;;;;19.13;17.80;;;11.10;99.90;;;;;;5081784;28;20462;-69
2022/12/20 09:55:35;;;;;;;17.70;16.60;;;11.10;99.90;;;;;;5082131;28;20454;-72
2022/12/20 09:58:27;;;;;;;16.73;15.80;;;11.10;99.90;;;;;;5079275;28;20491;-71
2022/12/20 10:00:54;;;;;;;15.67;14.87;;;11.20;99.90;;;;;;5086083;28;20454;-71
2022/12/20 10:03:25;;;;;;;17.67;16.53;;;11.30;99.90;;;;;;5087382;28;20501;-71
2022/12/20 10:05:54;;;;;;;17.17;16.00;;;11.20;99.90;;;;;;5087759;28;20518;-69
2022/12/20 10:08:36;;;;;;;15.30;14.50;;;11.30;99.90;;;;;;5076761;28;20941;-68
2022/12/20 10:11:09;;;;;;;17.97;16.47;;;11.30;99.90;;;;;;5089922;28;20872;-69
2022/12/20 10:13:47;;;;;;;19.30;17.70;;;11.30;99.90;;;;;;5078359;28;20473;-72
2022/12/20 10:16:29;;;;;;;20.50;18.37;;;11.30;99.90;;;;;;5084760;28;20887;-69
2022/12/20 10:19:08;;;;;;;22.27;20.07;;;11.40;99.90;;;;;;5084830;28;21041;-70
2022/12/20 10:21:44;;;;;;;20.33;18.60;;;11.50;99.90;;;;;;5090698;28;20958;-69
2022/12/20 10:24:17;;;;;;;14.70;13.80;;;11.60;99.90;;;;;;5079403;28;20459;-70
2022/12/20 10:26:45;;;;;;;13.17;12.37;;;11.60;99.90;;;;;;5082897;28;20461;-71
2022/12/20 10:29:12;;;;;;;12.47;11.87;;;11.80;99.90;;;;;;5084947;28;20477;-70
2022/12/20 10:31:39;;;;;;;13.60;12.70;;;12.00;99.90;;;;;;5076794;28;20466;-71
2022/12/20 10:34:06;;;;;;;12.20;11.47;;;12.10;99.90;;;;;;5077809;28;20462;-71
2022/12/20 10:36:35;;;;;;;13.63;12.73;;;12.20;99.90;;;;;;5083907;28;20449;-69
2022/12/20 10:39:06;;;;;;;12.67;12.07;;;12.30;99.90;;;;;;5078344;28;20490;-70
2022/12/20 10:41:47;;;;;;;13.43;12.60;;;12.50;99.90;;;;;;5078114;28;20458;-71
2022/12/20 10:44:19;;;;;;;13.60;12.90;;;12.60;99.90;;;;;;5084191;28;20554;-69
2022/12/20 10:46:49;;;;;;;13.20;12.30;;;12.70;99.90;;;;;;5077549;28;20461;-72
2022/12/20 10:49:26;;;;;;;13.40;12.50;;;12.80;99.90;;;;;;5082351;28;20459;-69
2022/12/20 10:51:54;;;;;;;13.30;12.50;;;12.90;99.90;;;;;;5075168;28;20484;-69
2022/12/20 10:54:28;;;;;;;13.57;12.77;;;13.10;99.90;;;;;;5081529;28;20523;-69
2022/12/20 10:56:58;;;;;;;13.03;12.43;;;13.20;99.90;;;;;;5080163;28;20782;-69
2022/12/20 10:59:31;;;;;;;13.43;12.63;;;13.30;99.90;;;;;;5079273;28;21006;-70
2022/12/20 11:01:58;;;;;;;13.27;12.47;;;13.30;99.90;;;;;;5078577;28;20516;-69
2022/12/20 11:04:28;;;;;;;12.97;12.30;;;13.20;99.90;;;;;;5081028;28;20489;-69
2022/12/20 11:06:55;;;;;;;13.70;12.80;;;13.20;99.90;;;;;;5082124;28;20515;-69
2022/12/20 11:09:30;;;;;;;13.07;12.07;;;13.20;99.90;;;;;;5083699;28;20457;-69
2022/12/20 11:12:03;;;;;;;13.27;12.43;;;13.30;99.90;;;;;;5076518;28;20503;-70
2022/12/20 11:14:32;;;;;;;14.30;13.40;;;13.20;99.90;;;;;;5081151;28;20474;-72
2022/12/20 11:17:02;;;;;;;14.00;13.10;;;13.20;99.90;;;;;;5084614;28;20521;-69
2022/12/20 11:19:54;;;;;;;13.70;12.90;;;13.20;99.90;;;;;;5084848;28;20489;-70
2022/12/20 11:22:34;;;;;;;14.03;13.23;;;13.20;99.90;;;;;;5083003;28;20465;-69
2022/12/20 11:25:16;;;;;;;14.00;13.13;;;13.30;99.90;;;;;;5090508;28;20466;-70
2022/12/20 11:27:57;;;;;;;14.63;13.80;;;13.30;99.90;;;;;;5082078;28;20495;-71
2022/12/20 11:30:26;;;;;;;13.67;12.97;;;13.40;99.90;;;;;;5077814;28;20461;-70
2022/12/20 11:33:11;;;;;;;14.80;14.00;;;13.40;99.90;;;;;;5080688;28;20544;-72
2022/12/20 11:35:49;;;;;;;16.10;14.53;;;13.40;99.90;;;;;;5083670;28;20667;-70
2022/12/20 11:38:33;;;;;;;15.20;14.20;;;13.50;99.90;;;;;;5082273;28;20904;-72
2022/12/20 11:41:11;;;;;;;15.40;13.90;;;13.60;99.90;;;;;;5083382;28;20964;-70
2022/12/20 11:44:00;;;;;;;14.33;13.33;;;13.60;99.90;;;;;;5078649;28;21003;-71
2022/12/20 11:46:40;;;;;;;14.80;13.80;;;13.70;99.90;;;;;;5065402;28;20466;-68
2022/12/20 11:49:38;;;;;;;14.13;13.23;;;13.70;99.90;;;;;;5080407;28;20461;-70
2022/12/20 11:52:13;;;;;;;15.13;13.60;;;13.70;99.90;;;;;;5089367;28;20898;-70
2022/12/20 11:54:43;;;;;;;14.30;13.50;;;13.70;99.90;;;;;;5084667;28;20777;-69
2022/12/20 11:57:19;;;;;;;15.70;14.50;;;13.70;99.90;;;;;;5079708;28;20564;-72
2022/12/20 11:59:51;;;;;;;15.00;14.00;;;13.60;99.90;;;;;;5079389;28;20485;-69
2022/12/20 12:02:23;;;;;;;14.70;13.90;;;13.60;99.90;;;;;;5078389;28;20453;-69
2022/12/20 12:04:55;;;;;;;14.03;13.23;;;13.60;99.90;;;;;;5087648;28;20494;-69
2022/12/20 12:07:26;;;;;;;14.43;13.63;;;13.60;99.90;;;;;;5074861;28;20458;-72
2022/12/20 12:10:00;;;;;;;14.50;13.30;;;13.50;99.90;;;;;;5081699;28;20463;-71
2022/12/20 12:12:32;;;;;;;12.83;12.13;;;13.50;99.90;;;;;;5077506;28;20465;-71
2022/12/20 12:15:05;;;;;;;14.00;12.73;;;13.30;99.90;;;;;;5078385;28;20461;-72
2022/12/20 12:17:38;;;;;;;14.47;13.60;;;13.10;99.90;;;;;;5074813;28;20465;-69
2022/12/20 12:20:22;;;;;;;22.40;20.90;;;12.90;99.90;;;;;;5083131;28;20835;-69
2022/12/20 12:22:55;;;;;;;22.13;20.53;;;12.60;99.90;;;;;;5084402;28;20446;-70
2022/12/20 12:25:22;;;;;;;21.90;20.40;;;12.20;99.90;;;;;;5089306;28;20457;-72
2022/12/20 12:27:50;;;;;;;19.47;18.27;;;12.10;99.90;;;;;;5072855;28;20501;-71
2022/12/20 12:30:17;;;;;;;18.90;17.57;;;12.00;99.90;;;;;;5078696;28;20571;-71
2022/12/20 12:32:50;;;;;;;17.57;16.57;;;11.90;99.90;;;;;;5081422;28;20468;-69
2022/12/20 12:35:46;;;;;;;18.90;17.17;;;11.80;99.90;;;;;;5084815;28;20461;-70
2022/12/20 12:38:46;;;;;;;17.10;16.10;;;11.80;99.90;;;;;;5085189;28;20494;-71
2022/12/20 12:41:41;;;;;;;17.43;16.33;;;11.70;99.90;;;;;;5058912;28;20512;-71
2022/12/20 12:44:33;;;;;;;16.70;15.80;;;11.70;99.90;;;;;;5079983;28;20459;-72
2022/12/20 12:47:06;;;;;;;17.17;15.97;;;11.70;99.90;;;;;;5083675;28;20809;-72
2022/12/20 12:49:34;;;;;;;16.13;15.23;;;11.70;99.90;;;;;;5072508;28;20454;-72
2022/12/20 12:52:04;;;;;;;16.93;15.80;;;11.70;99.90;;;;;;5074793;28;20848;-72
2022/12/20 12:54:39;;;;;;;16.67;15.67;;;11.70;99.90;;;;;;5076335;28;20546;-71
2022/12/20 12:57:12;;;;;;;16.10;15.20;;;12.00;99.90;;;;;;5080508;28;20506;-71